createdAt,value
2023-02-25T00:02:02.802Z,99726.81
2023-02-25T00:04:32.501Z,99726.00
2023-02-25T00:07:03.285Z,99720.88
2023-02-25T00:09:32.389Z,99724.66
2023-02-25T00:12:01.038Z,99722.50
2023-02-25T00:14:29.674Z,99718.75
2023-02-25T00:16:58.200Z,99721.72
2023-02-25T00:19:27.665Z,99713.34
2023-02-25T00:21:56.429Z,99710.91
2023-02-25T00:24:26.292Z,99713.91
2023-02-25T00:26:54.741Z,99705.25
2023-02-25T00:29:23.228Z,99717.66
2023-02-25T00:31:51.779Z,99704.97
2023-02-25T00:34:20.453Z,99699.88
2023-02-25T00:36:50.081Z,99710.38
2023-02-25T00:39:18.648Z,99706.31
2023-02-25T00:41:48.354Z,99708.47
2023-02-25T00:44:16.981Z,99712.81
2023-02-25T00:46:45.732Z,99716.34
2023-02-25T00:49:26.997Z,99710.66
2023-02-25T00:52:00.463Z,99711.19
2023-02-25T00:54:29.104Z,99713.06
2023-02-25T00:56:58.872Z,99719.84
2023-02-25T00:59:27.596Z,99724.16
2023-02-25T01:01:56.054Z,99724.72
2023-02-25T01:04:24.730Z,99730.91
2023-02-25T01:06:54.122Z,99734.94
2023-02-25T01:09:22.830Z,99732.25
2023-02-25T01:11:51.325Z,99731.19
2023-02-25T01:14:23.182Z,99717.41
2023-02-25T01:16:53.063Z,99721.47
2023-02-25T01:19:23.642Z,99728.50
2023-02-25T01:21:56.003Z,99724.72
2023-02-25T01:24:27.565Z,99719.31
2023-02-25T01:26:58.699Z,99718.50
2023-02-25T01:29:31.023Z,99722.53
2023-02-25T01:32:02.096Z,99728.47
2023-02-25T01:34:30.954Z,99720.91
2023-02-25T01:36:59.703Z,99719.28
2023-02-25T01:39:29.095Z,99717.13
2023-02-25T01:41:58.671Z,99720.91
2023-02-25T01:44:33.417Z,99727.94
2023-02-25T01:47:03.813Z,99718.75
2023-02-25T01:49:35.485Z,99718.75
2023-02-25T01:52:08.144Z,99724.69
2023-02-25T01:54:38.392Z,99721.19
2023-02-25T01:57:09.139Z,99723.34
2023-02-25T01:59:40.262Z,99725.50
2023-02-25T02:02:09.719Z,99726.31
2023-02-25T02:04:39.547Z,99720.91
2023-02-25T02:07:08.200Z,99719.81
2023-02-25T02:09:37.737Z,99713.59
2023-02-25T02:12:07.920Z,99721.44
2023-02-25T02:14:41.403Z,99727.41
2023-02-25T02:17:24.039Z,99727.13
2023-02-25T02:20:09.857Z,99726.31
2023-02-25T02:22:46.918Z,99733.34
2023-02-25T02:26:12.110Z,99725.22
2023-02-25T02:29:17.956Z,99713.06
2023-02-25T02:31:55.551Z,99716.03
2023-02-25T02:34:36.690Z,99717.38
2023-02-25T02:37:15.621Z,99725.22
2023-02-25T02:39:54.029Z,99725.22
2023-02-25T02:42:31.875Z,99722.78
2023-02-25T02:45:05.825Z,99722.25
2023-02-25T02:47:39.387Z,99722.25
2023-02-25T02:50:10.998Z,99719.59
2023-02-25T02:52:44.324Z,99726.84
2023-02-25T02:55:22.581Z,99723.88
2023-02-25T02:57:54.705Z,99726.03
2023-02-25T03:00:29.037Z,99724.69
2023-02-25T03:03:03.534Z,99728.75
2023-02-25T03:05:35.445Z,99729.59
2023-02-25T03:08:08.758Z,99728.78
2023-02-25T03:10:38.255Z,99733.88
2023-02-25T03:13:06.826Z,99739.00
2023-02-25T03:15:36.380Z,99734.41
2023-02-25T03:18:11.269Z,99732.78
2023-02-25T03:20:43.988Z,99751.19
2023-02-25T03:23:27.417Z,99744.16
2023-02-25T03:26:10.455Z,99745.22
2023-02-25T03:28:40.149Z,99744.69
2023-02-25T03:31:15.214Z,99733.59
2023-02-25T03:33:49.843Z,99721.75
2023-02-25T03:36:23.800Z,99732.78
2023-02-25T03:38:57.419Z,99730.91
2023-02-25T03:41:31.278Z,99732.00
2023-02-25T03:44:01.108Z,99718.50
2023-02-25T03:46:31.705Z,99733.91
2023-02-25T03:49:04.071Z,99734.44
2023-02-25T03:51:36.771Z,99737.66
2023-02-25T03:54:11.576Z,99742.78
2023-02-25T03:56:47.252Z,99749.56
2023-02-25T03:59:16.907Z,99749.28
2023-02-25T04:01:48.174Z,99754.97
2023-02-25T04:04:18.251Z,99757.38
2023-02-25T04:06:47.244Z,99762.53
2023-02-25T04:09:15.691Z,99764.41
2023-02-25T04:11:44.088Z,99776.03
2023-02-25T04:14:12.596Z,99773.06
2023-02-25T04:16:41.122Z,99779.56
2023-02-25T04:19:23.120Z,99776.84
2023-02-25T04:22:37.268Z,99769.81
2023-02-25T04:25:11.652Z,99770.38
2023-02-25T04:27:43.708Z,99775.78
2023-02-25T04:30:16.308Z,99774.97
2023-02-25T04:32:46.964Z,99771.19
2023-02-25T04:35:16.029Z,99766.31
2023-02-25T04:37:45.592Z,99770.09
2023-02-25T04:40:17.887Z,99769.03
2023-02-25T04:42:46.728Z,99785.78
2023-02-25T04:45:16.563Z,99784.69
2023-02-25T04:47:46.162Z,99787.94
2023-02-25T04:50:14.623Z,99780.91
2023-02-25T04:52:43.562Z,99794.44
2023-02-25T04:55:13.070Z,99778.22
2023-02-25T04:57:43.419Z,99780.91
2023-02-25T05:00:19.114Z,99780.09
2023-02-25T05:02:48.969Z,99781.47
2023-02-25T05:05:19.142Z,99771.19
2023-02-25T05:07:48.128Z,99777.09
2023-02-25T05:10:19.735Z,99776.81
2023-02-25T05:12:49.798Z,99777.63
2023-02-25T05:15:18.580Z,99774.38
2023-02-25T05:17:47.787Z,99780.91
2023-02-25T05:20:16.696Z,99781.72
2023-02-25T05:22:45.911Z,99787.38
2023-02-25T05:25:15.042Z,99783.59
2023-02-25T05:27:43.581Z,99779.81
2023-02-25T05:30:14.796Z,99786.03
2023-02-25T05:32:44.152Z,99774.97
2023-02-25T05:35:17.633Z,99790.38
2023-02-25T05:37:46.191Z,99779.00
2023-02-25T05:40:15.053Z,99788.47
2023-02-25T05:42:44.296Z,99791.44
2023-02-25T05:45:14.655Z,99800.91
2023-02-25T05:47:43.779Z,99791.44
2023-02-25T05:50:12.998Z,99786.84
2023-02-25T05:52:42.203Z,99788.47
2023-02-25T05:55:12.416Z,99790.88
2023-02-25T05:57:41.382Z,99796.03
2023-02-25T06:00:14.671Z,99791.72
2023-02-25T06:02:45.186Z,99789.28
2023-02-25T06:05:14.202Z,99796.03
2023-02-25T06:07:42.636Z,99792.78
2023-02-25T06:10:12.817Z,99799.25
2023-02-25T06:12:41.699Z,99802.00
2023-02-25T06:15:10.557Z,99802.81
2023-02-25T06:17:39.879Z,99799.28
2023-02-25T06:20:11.597Z,99795.50
2023-02-25T06:22:40.200Z,99804.13
2023-02-25T06:25:09.615Z,99806.84
2023-02-25T06:27:38.187Z,99812.25
2023-02-25T06:30:08.764Z,99812.78
2023-02-25T06:32:37.756Z,99805.22
2023-02-25T06:35:07.847Z,99808.47
2023-02-25T06:37:37.715Z,99810.91
2023-02-25T06:40:08.079Z,99814.41
2023-02-25T06:42:36.564Z,99819.56
2023-02-25T06:45:05.923Z,99820.38
2023-02-25T06:47:34.599Z,99832.78
2023-02-25T06:50:03.049Z,99838.75
2023-02-25T06:52:31.955Z,99833.09
2023-02-25T06:55:01.782Z,99839.00
2023-02-25T06:57:30.188Z,99843.38
2023-02-25T06:59:58.508Z,99850.66
2023-02-25T07:02:28.876Z,99850.09
2023-02-25T07:04:57.656Z,99853.88
2023-02-25T07:07:26.088Z,99862.00
2023-02-25T07:09:54.433Z,99875.81
2023-02-25T07:12:24.691Z,99863.63
2023-02-25T07:14:53.143Z,99863.91
2023-02-25T07:17:22.066Z,99874.97
2023-02-25T07:19:50.682Z,99870.13
2023-02-25T07:22:23.873Z,99879.59
2023-02-25T07:24:52.619Z,99877.97
2023-02-25T07:27:27.315Z,99884.19
2023-02-25T07:30:05.268Z,99897.69
2023-02-25T07:32:34.360Z,99889.06
2023-02-25T07:35:04.486Z,99891.22
2023-02-25T07:37:33.047Z,99895.00
2023-02-25T07:40:01.777Z,99899.59
2023-02-25T07:42:32.515Z,99905.28
2023-02-25T07:45:02.279Z,99902.03
2023-02-25T07:47:31.107Z,99902.53
2023-02-25T07:49:59.558Z,99907.44
2023-02-25T07:52:27.998Z,99910.69
2023-02-25T07:54:56.599Z,99908.53
2023-02-25T07:57:25.136Z,99916.63
2023-02-25T07:59:54.981Z,99910.13
2023-02-25T08:02:23.682Z,99902.00
2023-02-25T08:04:52.460Z,99924.19
2023-02-25T08:07:21.472Z,99921.22
2023-02-25T08:09:50.039Z,99920.38
2023-02-25T08:12:18.447Z,99922.47
2023-02-25T08:14:46.836Z,99927.25
2023-02-25T08:17:16.565Z,99925.28
2023-02-25T08:19:45.170Z,99933.53
2023-02-25T08:22:13.856Z,99933.88
2023-02-25T08:24:42.507Z,99924.53
2023-02-25T08:27:11.197Z,99924.72
2023-02-25T08:29:39.917Z,99937.81
2023-02-25T08:32:08.979Z,99938.69
2023-02-25T08:34:38.997Z,99937.34
2023-02-25T08:37:11.012Z,99934.03
2023-02-25T08:39:39.642Z,99926.91
2023-02-25T08:42:08.119Z,99939.44
2023-02-25T08:44:37.058Z,99947.38
2023-02-25T08:47:05.694Z,99946.97
2023-02-25T08:49:34.114Z,99958.22
2023-02-25T08:52:03.898Z,99954.13
2023-02-25T08:54:32.581Z,99962.00
2023-02-25T08:57:01.381Z,99949.78
2023-02-25T08:59:36.052Z,99956.88
2023-02-25T09:02:06.279Z,99974.44
2023-02-25T09:04:35.780Z,99978.31
2023-02-25T09:07:05.738Z,99964.88
2023-02-25T09:09:34.172Z,99969.84
2023-02-25T09:12:05.232Z,99974.97
2023-02-25T09:14:34.985Z,99985.69
2023-02-25T09:17:03.895Z,99982.53
2023-02-25T09:19:38.333Z,99968.38
2023-02-25T09:22:09.692Z,99979.78
2023-02-25T09:24:38.530Z,99979.31
2023-02-25T09:27:08.068Z,99984.31
2023-02-25T09:29:38.321Z,99987.47
2023-02-25T09:32:07.835Z,99989.47
2023-02-25T09:34:37.842Z,99999.09
2023-02-25T09:37:06.889Z,100004.09
2023-02-25T09:39:36.648Z,100003.47
2023-02-25T09:42:10.458Z,100012.22
2023-02-25T09:44:44.539Z,100012.28
2023-02-25T09:47:19.350Z,100016.44
2023-02-25T09:49:53.141Z,100014.53
2023-02-25T09:52:28.741Z,100027.38
2023-02-25T09:55:04.520Z,100035.81
2023-02-25T09:57:38.505Z,100034.53
2023-02-25T10:00:17.019Z,100037.19
2023-02-25T10:02:52.097Z,100066.13
2023-02-25T10:05:30.201Z,100065.19
2023-02-25T10:08:08.544Z,100067.63
2023-02-25T10:10:48.937Z,100075.59
2023-02-25T10:13:28.690Z,100073.13
2023-02-25T10:16:07.234Z,100056.88
2023-02-25T10:18:49.583Z,100072.69
2023-02-25T10:21:31.162Z,100068.50
2023-02-25T10:24:16.273Z,100077.97
2023-02-25T10:26:50.458Z,100094.66
2023-02-25T10:29:28.374Z,100083.09
2023-02-25T10:32:00.298Z,100094.34
2023-02-25T10:34:30.592Z,100082.97
2023-02-25T10:37:01.041Z,100094.19
2023-02-25T10:39:31.215Z,100103.59
2023-02-25T10:42:01.597Z,100089.19
2023-02-25T10:44:30.058Z,100091.91
2023-02-25T10:47:02.849Z,100095.38
2023-02-25T10:49:38.116Z,100089.59
2023-02-25T10:52:10.225Z,100103.53
2023-02-25T10:54:47.956Z,100103.72
2023-02-25T10:57:25.780Z,100102.44
2023-02-25T11:00:01.206Z,100103.91
2023-02-25T11:02:31.814Z,100105.38
2023-02-25T11:05:00.386Z,100105.59
2023-02-25T11:07:34.105Z,100090.97
2023-02-25T11:10:15.596Z,100091.59
2023-02-25T11:12:47.107Z,100099.25
2023-02-25T11:15:46.589Z,100089.81
2023-02-25T11:18:21.655Z,100088.09
2023-02-25T11:20:54.077Z,100082.41
2023-02-25T11:23:28.318Z,100084.06
2023-02-25T11:25:57.747Z,100094.34
2023-02-25T11:28:34.095Z,100112.34
2023-02-25T11:31:11.272Z,100094.88
2023-02-25T11:33:43.627Z,100116.13
2023-02-25T11:36:13.238Z,100122.53
2023-02-25T11:38:43.212Z,100116.75
2023-02-25T11:41:21.553Z,100128.94
2023-02-25T11:43:51.620Z,100121.81
2023-02-25T11:46:23.851Z,100123.13
2023-02-25T11:48:56.301Z,100127.78
2023-02-25T11:51:27.735Z,100115.97
2023-02-25T11:54:10.095Z,100108.53
2023-02-25T11:56:43.933Z,100115.16
2023-02-25T11:59:29.297Z,100104.91
2023-02-25T12:02:20.677Z,100113.19
2023-02-25T12:05:07.347Z,100116.47
2023-02-25T12:08:13.830Z,100119.22
2023-02-25T12:11:26.532Z,100125.75
2023-02-25T12:14:18.854Z,100118.06
2023-02-25T12:17:21.476Z,100125.75
2023-02-25T12:20:34.175Z,100122.16
2023-02-25T12:23:39.084Z,100122.78
2023-02-25T12:26:14.516Z,100126.13
2023-02-25T12:29:03.533Z,100129.69
2023-02-25T12:32:04.275Z,100127.09
2023-02-25T12:35:06.962Z,100131.19
2023-02-25T12:37:55.818Z,100125.09
2023-02-25T12:40:39.592Z,100127.31
2023-02-25T12:43:25.957Z,100129.13
2023-02-25T12:46:12.130Z,100134.00
2023-02-25T12:49:05.454Z,100127.16
2023-02-25T12:52:04.214Z,100131.69
2023-02-25T12:54:58.113Z,100139.22
2023-02-25T12:57:42.164Z,100141.06
2023-02-25T13:00:44.709Z,100138.25
2023-02-25T13:03:49.753Z,100149.56
2023-02-25T13:06:47.744Z,100147.56
2023-02-25T13:09:48.573Z,100141.94
2023-02-25T13:12:34.004Z,100138.69
2023-02-25T13:15:10.485Z,100149.25
2023-02-25T13:17:56.090Z,100158.22
2023-02-25T13:20:51.612Z,100169.84
2023-02-25T13:23:34.640Z,100147.75
2023-02-25T13:26:19.593Z,100161.13
2023-02-25T13:29:28.668Z,100161.69
2023-02-25T13:32:16.089Z,100170.84
2023-02-25T13:34:51.957Z,100173.78
2023-02-25T13:37:37.742Z,100174.16
2023-02-25T13:40:32.432Z,100170.78
2023-02-25T13:43:19.043Z,100175.03
2023-02-25T13:45:58.048Z,100182.41
2023-02-25T13:48:50.845Z,100170.94
2023-02-25T13:52:07.806Z,100184.47
2023-02-25T13:55:07.737Z,100189.25
2023-02-25T13:57:44.994Z,100191.09
2023-02-25T14:00:43.441Z,100190.19
2023-02-25T14:03:49.055Z,100191.97
2023-02-25T14:06:30.468Z,100200.19
2023-02-25T14:09:14.966Z,100199.66
2023-02-25T14:11:57.861Z,100205.59
2023-02-25T14:14:54.565Z,100209.91
2023-02-25T14:17:45.301Z,100213.84
2023-02-25T14:20:29.179Z,100215.84
2023-02-25T14:23:02.359Z,100217.59
2023-02-25T14:25:45.807Z,100218.69
2023-02-25T14:28:23.622Z,100218.03
2023-02-25T14:31:08.218Z,100221.69
2023-02-25T14:33:52.942Z,100229.28
2023-02-25T14:36:36.740Z,100236.69
2023-02-25T14:39:23.703Z,100241.94
2023-02-25T14:42:05.608Z,100243.72
2023-02-25T14:44:41.836Z,100248.16
2023-02-25T14:47:14.316Z,100240.75
2023-02-25T14:49:55.396Z,100244.88
2023-02-25T14:52:50.775Z,100244.63
2023-02-25T14:55:50.254Z,100245.44
2023-02-25T14:58:44.881Z,100257.84
2023-02-25T15:01:38.629Z,100257.28
2023-02-25T15:04:35.476Z,100257.66
2023-02-25T15:07:20.550Z,100273.78
2023-02-25T15:10:18.434Z,100272.50
2023-02-25T15:13:27.256Z,100272.75
2023-02-25T15:16:29.712Z,100271.13
2023-02-25T15:19:27.057Z,100279.69
2023-02-25T15:22:19.358Z,100293.88
2023-02-25T15:24:48.801Z,100289.50
2023-02-25T15:27:43.077Z,100282.19
2023-02-25T15:30:13.455Z,100292.16
2023-02-25T15:32:54.179Z,100297.03
2023-02-25T15:35:25.281Z,100304.16
2023-02-25T15:38:13.624Z,100308.97
2023-02-25T15:40:47.198Z,100321.22
2023-02-25T15:43:40.888Z,100322.94
2023-02-25T15:46:43.654Z,100321.59
2023-02-25T15:49:29.129Z,100325.16
2023-02-25T15:51:59.474Z,100331.66
2023-02-25T15:54:51.140Z,100338.16
2023-02-25T15:57:42.039Z,100344.09
2023-02-25T16:00:44.365Z,100348.41
2023-02-25T16:03:40.202Z,100352.22
2023-02-25T16:06:14.357Z,100353.50
2023-02-25T16:08:53.149Z,100354.59
2023-02-25T16:11:35.728Z,100365.41
2023-02-25T16:14:07.992Z,100364.00
2023-02-25T16:16:40.678Z,100362.63
2023-02-25T16:19:16.948Z,100376.94
2023-02-25T16:21:49.076Z,100378.56
2023-02-25T16:24:19.883Z,100378.25
2023-02-25T16:26:58.781Z,100376.38
2023-02-25T16:29:46.316Z,100383.31
2023-02-25T16:32:26.633Z,100389.25
2023-02-25T16:35:00.719Z,100398.38
2023-02-25T16:37:39.649Z,100398.38
2023-02-25T16:40:15.855Z,100407.53
2023-02-25T16:42:47.039Z,100406.44
2023-02-25T16:45:25.929Z,100414.97
2023-02-25T16:48:01.287Z,100414.69
2023-02-25T16:50:32.523Z,100419.19
2023-02-25T16:53:03.324Z,100430.63
2023-02-25T16:55:39.877Z,100425.97
2023-02-25T16:58:24.144Z,100438.91
2023-02-25T17:00:55.033Z,100435.47
2023-02-25T17:03:27.475Z,100434.31
2023-02-25T17:06:06.232Z,100444.31
2023-02-25T17:08:35.508Z,100432.88
2023-02-25T17:11:06.741Z,100451.28
2023-02-25T17:13:41.852Z,100447.38
2023-02-25T17:16:21.286Z,100448.72
2023-02-25T17:18:54.543Z,100466.47
2023-02-25T17:21:26.120Z,100462.59
2023-02-25T17:23:54.752Z,100461.81
2023-02-25T17:26:26.047Z,100468.38
2023-02-25T17:28:58.738Z,100475.53
2023-02-25T17:31:30.377Z,100478.03
2023-02-25T17:34:01.161Z,100482.66
2023-02-25T17:36:35.360Z,100489.38
2023-02-25T17:39:07.406Z,100495.00
2023-02-25T17:41:37.150Z,100500.56
2023-02-25T17:44:07.657Z,100506.78
2023-02-25T17:46:39.393Z,100499.09
2023-02-25T17:49:21.396Z,100504.59
2023-02-25T17:51:55.726Z,100512.78
2023-02-25T17:54:27.482Z,100510.97
2023-02-25T17:56:59.980Z,100518.00
2023-02-25T17:59:38.398Z,100519.50
2023-02-25T18:02:28.887Z,100526.00
2023-02-25T18:05:22.291Z,100529.59
2023-02-25T18:08:10.734Z,100537.53
2023-02-25T18:10:52.380Z,100550.28
2023-02-25T18:13:26.160Z,100547.31
2023-02-25T18:16:31.340Z,100548.09
2023-02-25T18:19:01.362Z,100550.28
2023-02-25T18:21:30.808Z,100557.81
2023-02-25T18:24:01.601Z,100551.16
2023-02-25T18:26:53.322Z,100555.28
2023-02-25T18:29:24.267Z,100558.69
2023-02-25T18:31:53.596Z,100560.88
2023-02-25T18:34:22.204Z,100554.59
2023-02-25T18:36:55.259Z,100558.06
2023-02-25T18:39:27.101Z,100561.44
2023-02-25T18:41:58.181Z,100573.16
2023-02-25T18:44:30.493Z,100571.75
2023-02-25T18:47:07.032Z,100571.28
2023-02-25T18:49:35.819Z,100570.50
2023-02-25T18:52:04.605Z,100585.94
2023-02-25T18:54:34.354Z,100581.63
2023-02-25T18:57:04.221Z,100581.53
2023-02-25T18:59:34.158Z,100569.81
2023-02-25T19:02:03.321Z,100579.28
2023-02-25T19:04:31.779Z,100577.66
2023-02-25T19:07:00.232Z,100586.88
2023-02-25T19:09:29.091Z,100585.03
2023-02-25T19:11:58.993Z,100587.13
2023-02-25T19:14:28.277Z,100589.38
2023-02-25T19:16:59.624Z,100592.75
2023-02-25T19:19:29.557Z,100583.84
2023-02-25T19:21:58.762Z,100590.91
2023-02-25T19:24:28.974Z,100597.53
2023-02-25T19:27:00.758Z,100598.09
2023-02-25T19:29:29.269Z,100606.41
2023-02-25T19:31:59.164Z,100616.34
2023-02-25T19:34:28.024Z,100616.53
2023-02-25T19:36:56.835Z,100614.28
2023-02-25T19:39:25.680Z,100620.06
2023-02-25T19:41:54.484Z,100623.19
2023-02-25T19:44:38.644Z,100620.28
2023-02-25T19:47:08.966Z,100627.75
2023-02-25T19:49:37.831Z,100627.75
2023-02-25T19:52:07.139Z,100628.19
2023-02-25T19:54:36.505Z,100643.13
2023-02-25T19:57:05.586Z,100645.28
2023-02-25T19:59:42.363Z,100642.00
2023-02-25T20:02:14.387Z,100644.00
2023-02-25T20:04:43.908Z,100653.28
2023-02-25T20:07:15.921Z,100648.78
2023-02-25T20:09:44.788Z,100654.16
2023-02-25T20:12:14.026Z,100653.19
2023-02-25T20:14:43.182Z,100655.66
2023-02-25T20:17:13.326Z,100662.31
2023-02-25T20:19:42.607Z,100669.63
2023-02-25T20:22:12.574Z,100667.78
2023-02-25T20:24:43.505Z,100664.91
2023-02-25T20:27:13.049Z,100661.41
2023-02-25T20:29:42.117Z,100655.91
2023-02-25T20:32:11.805Z,100663.28
2023-02-25T20:34:42.401Z,100658.34
2023-02-25T20:37:15.661Z,100674.25
2023-02-25T20:39:55.416Z,100678.56
2023-02-25T20:42:27.682Z,100677.75
2023-02-25T20:44:58.183Z,100680.38
2023-02-25T20:47:30.217Z,100685.38
2023-02-25T20:50:00.889Z,100687.84
2023-02-25T20:52:32.314Z,100688.19
2023-02-25T20:55:01.234Z,100685.22
2023-02-25T20:57:30.363Z,100693.25
2023-02-25T20:59:59.184Z,100692.50
2023-02-25T21:02:27.929Z,100692.81
2023-02-25T21:04:56.656Z,100702.81
2023-02-25T21:07:27.002Z,100702.81
2023-02-25T21:09:56.128Z,100699.75
2023-02-25T21:12:25.155Z,100701.31
2023-02-25T21:14:54.231Z,100703.63
2023-02-25T21:17:23.145Z,100713.41
2023-02-25T21:19:53.572Z,100712.75
2023-02-25T21:22:22.150Z,100713.28
2023-02-25T21:24:53.331Z,100713.59
2023-02-25T21:27:24.011Z,100716.88
2023-02-25T21:29:53.576Z,100722.41
2023-02-25T21:32:22.736Z,100723.56
2023-02-25T21:34:51.834Z,100723.75
2023-02-25T21:37:20.686Z,100721.34
2023-02-25T21:39:49.406Z,100723.38
2023-02-25T21:42:19.602Z,100727.44
2023-02-25T21:44:48.116Z,100735.63
2023-02-25T21:47:17.812Z,100736.09
2023-02-25T21:49:46.537Z,100736.41
2023-02-25T21:52:16.561Z,100743.44
2023-02-25T21:54:47.472Z,100746.91
2023-02-25T21:57:19.309Z,100754.28
2023-02-25T21:59:53.759Z,100740.84
2023-02-25T22:02:23.191Z,100745.78
2023-02-25T22:04:53.527Z,100753.97
2023-02-25T22:07:23.629Z,100754.88
2023-02-25T22:09:51.985Z,100761.88
2023-02-25T22:12:20.446Z,100756.19
2023-02-25T22:14:50.308Z,100765.28
2023-02-25T22:17:19.204Z,100765.91
2023-02-25T22:19:49.889Z,100758.72
2023-02-25T22:22:20.784Z,100763.41
2023-02-25T22:24:49.344Z,100768.34
2023-02-25T22:27:20.270Z,100763.34
2023-02-25T22:29:50.078Z,100765.22
2023-02-25T22:32:18.506Z,100769.81
2023-02-25T22:34:47.025Z,100765.72
2023-02-25T22:37:15.678Z,100764.69
2023-02-25T22:39:44.197Z,100764.69
2023-02-25T22:42:12.722Z,100761.78
2023-02-25T22:44:41.160Z,100762.63
2023-02-25T22:47:10.936Z,100765.03
2023-02-25T22:49:39.375Z,100756.66
2023-02-25T22:52:07.834Z,100768.09
2023-02-25T22:54:36.400Z,100775.91
2023-02-25T22:57:04.936Z,100773.69
2023-02-25T22:59:33.451Z,100767.50
2023-02-25T23:02:02.750Z,100783.25
2023-02-25T23:04:32.787Z,100778.19
2023-02-25T23:07:01.782Z,100785.06
2023-02-25T23:09:30.184Z,100774.63
2023-02-25T23:11:59.823Z,100779.09
2023-02-25T23:14:28.793Z,100776.91
2023-02-25T23:16:57.408Z,100786.16
2023-02-25T23:19:25.770Z,100781.66
2023-02-25T23:21:55.491Z,100787.03
2023-02-25T23:24:23.849Z,100783.44
2023-02-25T23:26:54.199Z,100786.44
2023-02-25T23:29:22.819Z,100790.00
2023-02-25T23:31:51.372Z,100779.94
2023-02-25T23:34:22.809Z,100799.34
2023-02-25T23:36:51.862Z,100801.56
2023-02-25T23:39:23.577Z,100799.75
2023-02-25T23:41:52.090Z,100806.16
2023-02-25T23:44:20.689Z,100806.66
2023-02-25T23:46:49.585Z,100803.75
2023-02-25T23:49:18.300Z,100809.19
2023-02-25T23:51:48.534Z,100821.09
2023-02-25T23:54:18.951Z,100821.22
2023-02-25T23:56:49.804Z,100824.25
2023-02-25T23:59:18.569Z,100834.09
